Strona główna
METAR-TAF:

METAR-TAF

Lotnisko :

Pocono Mountains Municipal Airport

Mount Pocono, Pensylwania, Stany Zjednoczone

Szerokość geograficzna: 41-08-20N, Długość geograficzna: 075-23-46W, wysokość: 584 m

Aktualna obserwacja pogody

Raport powstał 9 minut temu, godzina 08:53 UTC
Cisza
Temperatura 16°C
Wilgotność 100%
Ciśnienie 1021 hPa
Widzialność: 16.1 km
Zachmurzenie całkowite na wysokości 6500 ft

METAR: KMPO 200853Z AUTO 00000KT 10SM OVC065 16/16 A3016 RMK AO2 SLP206 T01560156 53006

czas: 05:02 (09:02 UTC)


TAF: brakujący

Obserwacja i prognoza pogody dla ponad 4000 lotnisk (raport METAR i TAF).

Dostępne stacje oznaczono żółtymi i czerwonymi punktami na mapie.

Najedź kursorem aby zobaczyć nazwę stacji.

Kliknij aby zobaczyć obserwacje i prognozy pogody.

Aby zmienić mapę: kliknij na zielony przycisk z czarnym krzyżykiem, aby powiększyć; na zielony przycisk z myślnikiem, aby pomniejszyć; na zielone strzałki, aby przejść do map sąsiednich.


METAR-TAF: